.
WxDataArchive / Data Records for 2006-04-13
2006-04-12 April 2006 2006-04-14

Data Records for Thursday, 13 April 2006

Time	Temp	Chill	HIndex	Humid	Dewpt	 Wind 	HiWind	WindDir	Rain 	Barom 
-----	----	-----	------	-----	-----	------	------	-------	-----	----- 
00:00	55.0	55.0	55.0	80	48.9	0	0	---	0.00	30.036 
00:05	54.8	54.8	54.8	81	49.1	0	0	---	0.00	30.036 
00:10	54.8	54.8	54.8	81	49.1	0	0	---	0.00	30.036 
00:15	54.8	54.8	54.8	81	49.1	0	0	---	0.00	30.038 
00:20	54.8	54.8	54.8	81	49.1	0	0	---	0.00	30.038 
00:25	54.8	54.8	54.8	80	48.7	0	0	---	0.00	30.038 
00:30	55.0	55.0	55.0	81	49.3	0	0	---	0.00	30.039 
00:35	55.0	55.0	55.0	81	49.3	0	0	---	0.00	30.039 
00:40	54.8	54.8	54.8	82	49.4	0	0	---	0.00	30.039 
00:45	54.7	54.7	54.7	82	49.3	0	0	---	0.00	30.045 
00:50	54.7	54.7	54.7	82	49.3	0	0	---	0.00	30.045 
00:55	54.7	54.7	54.7	82	49.3	0	0	---	0.00	30.045 
01:00	54.5	54.5	54.5	82	49.1	0	0	---	0.00	30.046 
01:05	54.4	54.4	54.4	82	49.0	0	0	---	0.00	30.046 
01:10	54.2	54.2	54.2	82	48.8	0	0	---	0.00	30.046 
01:15	54.1	54.1	54.1	83	49.1	0	0	---	0.00	30.046 
01:20	53.9	53.9	53.9	83	48.9	0	0	---	0.00	30.046 
01:25	53.8	53.8	53.8	84	49.1	0	0	---	0.00	30.046 
01:30	53.5	53.5	53.5	84	48.8	0	0	---	0.00	30.048 
01:35	53.3	53.3	53.3	83	48.3	0	0	---	0.00	30.048 
01:40	53.2	53.2	53.2	84	48.5	0	0	---	0.00	30.048 
01:45	52.9	52.9	52.9	84	48.2	0	0	---	0.00	30.049 
01:50	52.8	52.8	52.8	84	48.1	0	0	---	0.00	30.049 
01:55	52.6	52.6	52.6	85	48.2	0	1	292	0.00	30.049 
02:00	52.5	52.5	52.5	85	48.1	0	0	---	0.00	30.049 
02:05	52.3	52.3	52.3	85	47.9	0	0	---	0.00	30.049 
02:10	52.2	52.2	52.2	85	47.8	0	0	---	0.00	30.049 
02:15	52.0	52.0	52.0	86	47.9	0	0	---	0.00	30.046 
02:20	51.9	51.9	51.9	86	47.8	0	0	---	0.00	30.046 
02:25	51.7	51.7	51.7	86	47.6	0	0	---	0.00	30.046 
02:30	51.4	51.4	51.4	86	47.4	0	0	---	0.00	30.049 
02:35	51.3	51.3	51.3	87	47.6	0	0	---	0.00	30.049 
02:40	51.1	51.1	51.1	87	47.4	0	0	---	0.00	30.049 
02:45	50.8	50.8	50.8	87	47.1	0	0	---	0.00	30.051 
02:50	50.7	50.7	50.7	88	47.3	0	0	---	0.00	30.051 
02:55	50.4	50.4	50.4	88	47.0	0	0	---	0.00	30.051 
03:00	50.2	50.2	50.2	89	47.1	0	0	---	0.00	30.051 
03:05	49.9	49.9	49.9	89	46.8	0	0	---	0.00	30.051 
03:10	49.8	49.8	49.8	89	46.7	0	0	---	0.00	30.051 
03:15	49.8	49.8	49.8	90	47.0	0	0	---	0.00	30.052 
03:20	49.6	49.6	49.6	89	46.5	0	0	---	0.00	30.052 
03:25	49.5	49.5	49.5	89	46.4	0	0	---	0.00	30.052 
03:30	49.4	49.4	49.4	89	46.3	0	0	---	0.00	30.053 
03:35	49.1	49.1	49.1	90	46.3	0	0	---	0.00	30.053 
03:40	49.1	49.1	49.1	90	46.3	0	0	---	0.00	30.053 
03:45	48.9	48.9	48.9	90	46.1	0	0	---	0.00	30.055 
03:50	48.8	48.8	48.8	91	46.3	0	0	---	0.00	30.055 
03:55	48.6	48.6	48.6	91	46.1	0	0	---	0.00	30.055 
04:00	48.6	48.6	48.6	91	46.1	0	0	---	0.00	30.056 
04:05	48.8	48.8	48.8	92	46.6	0	0	---	0.00	30.056 
04:10	48.9	48.9	48.9	92	46.7	0	0	---	0.00	30.056 
04:15	48.9	48.9	48.9	92	46.7	0	0	---	0.00	30.063 
04:20	48.8	48.8	48.8	91	46.3	0	0	---	0.00	30.063 
04:25	48.6	48.6	48.6	91	46.1	0	0	---	0.00	30.063 
04:30	48.6	48.6	48.6	92	46.4	0	0	---	0.00	30.060 
04:35	48.6	48.6	48.6	92	46.4	0	0	---	0.00	30.060 
04:40	48.8	48.8	48.8	92	46.6	0	0	---	0.00	30.060 
04:45	48.8	48.8	48.8	92	46.6	0	0	---	0.00	30.059 
04:50	48.6	48.6	48.6	92	46.4	0	0	---	0.00	30.059 
04:55	48.3	48.3	48.3	92	46.1	0	0	---	0.00	30.059 
05:00	48.2	48.2	48.2	91	45.7	0	0	---	0.00	30.067 
05:05	48.3	48.3	48.3	92	46.1	0	0	---	0.00	30.067 
05:10	48.6	48.6	48.6	92	46.4	0	0	---	0.00	30.067 
05:15	48.6	48.6	48.6	92	46.4	0	0	---	0.00	30.063 
05:20	48.6	48.6	48.6	92	46.4	0	0	---	0.00	30.063 
05:25	48.6	48.6	48.6	92	46.4	0	0	---	0.00	30.063 
05:30	48.8	48.8	48.8	91	46.3	0	0	---	0.00	30.068 
05:35	49.2	49.2	49.2	92	47.0	0	1	292	0.00	30.068 
05:40	49.4	49.4	49.4	92	47.2	0	0	---	0.00	30.068 
05:45	49.4	49.4	49.4	90	46.6	0	0	---	0.00	30.066 
05:50	49.1	49.1	49.1	90	46.3	0	0	---	0.00	30.066 
05:55	48.6	48.6	48.6	89	45.5	0	0	---	0.00	30.066 
06:00	48.2	48.2	48.2	89	45.1	0	0	---	0.00	30.058 
06:05	47.7	47.7	47.7	89	44.6	0	0	---	0.00	30.058 
06:10	47.3	47.3	47.3	89	44.2	0	0	---	0.00	30.058 
06:15	47.0	47.0	47.0	90	44.2	0	0	---	0.00	30.058 
06:20	47.0	47.0	47.0	91	44.5	0	0	---	0.00	30.058 
06:25	47.0	47.0	47.0	91	44.5	0	0	---	0.00	30.058 
06:30	47.1	47.1	47.1	92	44.9	0	0	---	0.00	30.076 
06:35	47.6	47.6	47.6	92	45.4	0	0	---	0.00	30.076 
06:40	48.0	48.0	48.0	93	46.1	0	1	292	0.00	30.076 
06:45	48.3	48.3	48.3	92	46.1	0	0	---	0.00	30.076 
06:50	48.6	48.6	48.6	92	46.4	0	0	---	0.00	30.076 
06:55	48.8	48.8	48.8	91	46.3	0	0	---	0.00	30.076 
07:00	48.9	48.9	48.9	90	46.1	0	0	---	0.00	30.084 
07:05	48.9	48.9	48.9	90	46.1	0	0	---	0.00	30.084 
07:10	49.2	49.2	49.2	89	46.1	0	1	292	0.00	30.084 
07:15	49.4	49.4	49.4	88	46.0	0	0	---	0.00	30.090 
07:20	49.5	49.5	49.5	87	45.8	0	0	---	0.00	30.090 
07:25	49.5	49.5	49.5	87	45.8	0	0	---	0.00	30.090 
07:30	49.6	49.6	49.6	86	45.6	0	0	---	0.00	30.089 
07:35	49.8	49.8	49.8	86	45.8	0	0	---	0.00	30.089 
07:40	49.8	49.8	49.8	86	45.8	0	0	---	0.00	30.089 
07:45	49.9	49.9	49.9	86	45.9	0	1	292	0.00	30.091 
07:50	50.4	50.4	50.4	87	46.7	0	0	---	0.00	30.091 
07:55	51.0	51.0	51.0	85	46.7	0	0	---	0.00	30.091 
08:00	52.0	52.0	52.0	82	46.7	0	3	292	0.00	30.091 
08:05	52.9	52.9	52.9	80	46.9	0	2	292	0.00	30.091 
08:10	53.8	53.8	53.8	79	47.4	0	1	292	0.00	30.091 
08:15	54.5	54.5	54.5	76	47.1	0	1	292	0.00	30.092 
08:20	54.8	54.8	54.8	75	47.0	1	3	292	0.00	30.092 
08:25	55.3	55.3	55.3	74	47.2	1	3	248	0.00	30.092 
08:30	55.6	55.6	55.6	73	47.1	1	4	225	0.00	30.094 
08:35	55.9	55.9	55.9	72	47.0	1	4	248	0.00	30.094 
08:40	56.5	56.5	56.5	71	47.2	2	4	248	0.00	30.094 
08:45	57.0	57.0	57.0	69	46.9	2	5	248	0.00	30.098 
08:50	57.6	57.6	57.6	67	46.7	3	6	248	0.00	30.098 
08:55	58.3	58.3	58.3	67	47.4	3	7	248	0.00	30.098 
09:00	58.7	58.7	58.7	65	47.0	3	6	248	0.00	30.096 
09:05	58.9	58.9	58.9	63	46.3	3	5	248	0.00	30.096 
09:10	59.2	59.2	59.2	63	46.6	2	5	248	0.00	30.096 
09:15	59.8	59.8	59.8	63	47.2	2	4	248	0.00	30.092 
09:20	60.4	60.4	60.4	61	46.9	2	5	248	0.00	30.092 
09:25	60.9	60.9	60.9	59	46.5	3	5	248	0.00	30.092 
09:30	61.3	61.3	61.3	59	46.8	2	5	248	0.00	30.089 
09:35	62.1	62.1	62.1	58	47.1	1	3	248	0.00	30.089 
09:40	62.7	62.7	62.7	55	46.3	1	3	248	0.00	30.089 
09:45	63.5	63.5	63.5	60	49.4	1	2	248	0.00	30.083 
09:50	64.2	64.2	64.2	56	48.2	1	4	248	0.00	30.083 
09:55	64.8	64.8	64.8	53	47.3	1	3	248	0.00	30.083 
10:00	65.6	65.6	65.6	51	47.0	1	3	248	0.00	30.077 
10:05	66.3	66.3	66.3	50	47.1	2	4	248	0.00	30.077 
10:10	66.6	66.6	66.6	49	46.8	1	3	248	0.00	30.077 
10:15	67.1	67.1	67.1	48	46.7	2	5	248	0.00	30.074 
10:20	68.1	68.1	68.1	50	48.7	1	3	248	0.00	30.074 
10:25	68.8	68.8	68.8	43	45.4	2	4	248	0.00	30.074 
10:30	69.3	69.3	69.3	44	46.4	2	5	248	0.00	30.070 
10:35	69.4	69.4	69.4	42	45.3	3	7	248	0.00	30.070 
10:40	69.9	69.9	69.9	42	45.8	1	3	248	0.00	30.070 
10:45	70.1	70.1	70.1	39	44.0	3	7	248	0.00	30.070 
10:50	70.3	70.3	70.3	39	44.2	3	7	248	0.00	30.070 
10:55	70.8	70.8	70.8	36	42.5	2	6	248	0.00	30.070 
11:00	71.3	71.3	71.3	39	45.1	2	6	248	0.00	30.069 
11:05	71.5	71.5	71.5	35	42.4	3	6	248	0.00	30.069 
11:10	71.8	71.8	71.8	36	43.4	2	5	248	0.00	30.069 
11:15	72.3	72.3	72.3	36	43.8	2	5	248	0.00	30.068 
11:20	72.8	72.8	72.8	38	45.7	2	6	248	0.00	30.068 
11:25	73.0	73.0	73.0	35	43.7	2	6	248	0.00	30.068 
11:30	73.2	73.2	73.2	34	43.1	3	9	248	0.00	30.066 
11:35	73.0	73.0	73.0	34	43.0	4	10	248	0.00	30.066 
11:40	73.2	73.2	73.2	34	43.1	3	6	248	0.00	30.066 
11:45	73.7	73.7	73.7	37	45.8	3	7	248	0.00	30.064 
11:50	73.7	73.7	73.7	29	39.5	4	10	248	0.00	30.064 
11:55	73.9	73.9	73.9	31	41.3	3	7	248	0.00	30.064 
12:00	74.2	74.2	74.2	28	39.0	4	12	270	0.00	30.058 
12:05	74.4	74.4	74.4	30	40.9	3	6	248	0.00	30.058 
12:10	74.6	74.6	74.6	28	39.3	4	10	248	0.00	30.058 
12:15	74.2	74.2	74.2	28	39.0	5	10	248	0.00	30.051 
12:20	74.4	74.4	74.4	28	39.2	4	13	270	0.00	30.051 
12:25	74.7	74.7	74.7	28	39.4	5	12	248	0.00	30.051 
12:30	74.9	74.9	74.9	27	38.7	5	11	248	0.00	30.048 
12:35	74.9	74.9	74.9	27	38.7	4	11	248	0.00	30.048 
12:40	74.7	74.7	74.7	28	39.4	5	12	248	0.00	30.048 
12:45	75.1	75.1	76.8	28	39.8	5	11	248	0.00	30.041 
12:50	75.6	75.6	76.9	27	39.2	5	9	248	0.00	30.041 
12:55	75.6	75.6	77.0	28	40.2	5	11	248	0.00	30.041 
13:00	76.0	76.0	77.1	27	39.6	4	12	248	0.00	30.036 
13:05	76.5	76.5	77.3	28	41.0	4	11	248	0.00	30.036 
13:10	76.5	76.5	77.2	26	39.0	5	10	248	0.00	30.036 
13:15	76.0	76.0	77.1	27	39.6	6	16	270	0.00	30.034 
13:20	76.1	76.1	77.1	27	39.7	5	12	248	0.00	30.034 
13:25	76.0	76.0	77.1	27	39.6	5	12	248	0.00	30.034 
13:30	76.3	76.3	77.2	27	39.8	5	11	248	0.00	30.032 
13:35	76.8	76.8	77.4	27	40.3	6	14	248	0.00	30.032 
13:40	77.2	77.2	77.4	25	38.6	5	12	248	0.00	30.032 
13:45	77.4	77.4	77.6	27	40.8	5	13	270	0.00	30.023 
13:50	77.4	77.4	77.5	25	38.8	5	12	248	0.00	30.023 
13:55	77.7	77.7	77.7	26	40.1	4	11	270	0.00	30.023 
14:00	77.9	77.9	77.7	24	38.2	5	12	248	0.00	30.020 
14:05	77.6	77.6	77.6	25	39.0	6	14	270	0.00	30.020 
14:10	77.2	77.2	77.4	25	38.6	7	15	248	0.00	30.020 
14:15	77.4	77.4	77.6	26	39.8	5	11	270	0.00	30.021 
14:20	77.2	77.2	77.5	26	39.6	5	15	270	0.00	30.021 
14:25	77.0	77.0	77.4	26	39.5	6	13	270	0.00	30.021 
14:30	76.8	76.8	77.5	28	41.2	5	14	270	0.00	30.012 
14:35	76.7	76.7	77.3	27	40.2	5	11	270	0.00	30.012 
14:40	77.0	77.0	77.4	26	39.5	4	16	248	0.00	30.012 
14:45	77.0	77.0	77.5	27	40.4	5	12	248	0.00	30.001 
14:50	77.0	77.0	77.5	27	40.4	3	9	270	0.00	30.001 
14:55	77.4	77.4	77.7	28	41.7	3	6	248	0.00	30.001 
15:00	77.6	77.6	77.7	26	40.0	4	13	270	0.00	29.994 
15:05	77.6	77.6	77.8	28	41.9	4	11	270	0.00	29.994 
15:10	77.2	77.2	77.6	27	40.6	4	12	270	0.00	29.994 
15:15	77.4	77.4	77.6	27	40.8	5	11	270	0.00	29.997 
15:20	77.6	77.6	77.9	29	42.8	4	11	248	0.00	29.997 
15:25	77.9	77.9	77.9	27	41.2	5	13	248	0.00	29.997 
15:30	77.9	77.9	77.9	27	41.2	3	8	270	0.00	29.994 
15:35	77.6	77.6	77.7	27	41.0	3	6	270	0.00	29.994 
15:40	77.0	77.0	77.5	27	40.4	5	12	270	0.00	29.994 
15:45	76.8	76.8	77.4	27	40.3	5	14	248	0.00	29.992 
15:50	76.5	76.5	77.3	27	40.0	4	9	270	0.00	29.992 
15:55	76.1	76.1	77.2	28	40.6	4	11	270	0.00	29.992 
16:00	76.1	76.1	77.2	28	40.6	5	10	270	0.00	29.992 
16:05	76.1	76.1	77.1	27	39.7	3	6	248	0.00	29.992 
16:10	76.3	76.3	77.2	28	40.8	4	11	248	0.00	29.992 
16:15	76.3	76.3	77.2	28	40.8	3	11	270	0.00	29.981 
16:20	76.3	76.3	77.2	27	39.8	3	6	248	0.00	29.981 
16:25	76.3	76.3	77.2	28	40.8	4	11	248	0.00	29.981 
16:30	76.3	76.3	77.2	28	40.8	4	11	270	0.00	29.975 
16:35	76.5	76.5	77.3	28	41.0	3	6	248	0.00	29.975 
16:40	76.5	76.5	77.3	28	41.0	4	12	248	0.00	29.975 
16:45	76.7	76.7	77.3	27	40.2	3	10	270	0.00	29.976 
16:50	76.5	76.5	77.3	27	40.0	4	10	270	0.00	29.976 
16:55	76.5	76.5	77.3	28	41.0	5	11	270	0.00	29.976 
17:00	76.3	76.3	77.2	28	40.8	7	14	270	0.00	29.980 
17:05	76.1	76.1	77.2	28	40.6	5	14	270	0.00	29.980 
17:10	76.0	76.0	77.1	27	39.6	4	10	270	0.00	29.980 
17:15	75.8	75.8	77.0	27	39.4	4	9	270	0.00	29.985 
17:20	75.6	75.6	77.0	28	40.2	3	6	315	0.00	29.985 
17:25	75.6	75.6	77.0	28	40.2	5	13	270	0.00	29.985 
17:30	75.4	75.4	76.9	28	40.0	3	6	292	0.00	29.988 
17:35	75.4	75.4	76.8	27	39.1	3	10	270	0.00	29.988 
17:40	75.3	75.3	76.9	28	39.9	3	7	315	0.00	29.988 
17:45	75.3	75.3	77.0	29	40.8	3	7	270	0.00	29.979 
17:50	75.3	75.3	77.0	29	40.8	1	4	248	0.00	29.979 
17:55	75.3	75.3	76.9	28	39.9	1	2	292	0.00	29.979 
18:00	75.3	75.3	77.0	29	40.8	1	2	292	0.00	29.963 
18:05	75.4	75.4	76.8	27	39.1	0	2	292	0.00	29.963 
18:10	75.6	75.6	77.0	28	40.2	1	3	270	0.00	29.963 
18:15	75.4	75.4	76.9	28	40.0	1	3	292	0.00	29.970 
18:20	75.1	75.1	76.9	29	40.7	1	5	292	0.00	29.970 
18:25	74.9	74.9	74.9	28	39.6	1	3	338	0.00	29.970 
18:30	74.7	74.7	74.7	28	39.4	1	3	0	0.00	29.965 
18:35	74.6	74.6	74.6	29	40.2	1	5	315	0.00	29.965 
18:40	74.6	74.6	74.6	31	42.0	1	3	248	0.00	29.965 
18:45	74.6	74.6	74.6	31	42.0	0	1	270	0.00	29.961 
18:50	74.4	74.4	74.4	30	40.9	1	3	270	0.00	29.961 
18:55	74.2	74.2	74.2	30	40.8	0	2	0	0.00	29.961 
19:00	74.2	74.2	74.2	31	41.6	0	2	0	0.00	29.960 
19:05	74.2	74.2	74.2	29	39.9	0	1	0	0.00	29.960 
19:10	74.2	74.2	74.2	31	41.6	0	1	0	0.00	29.960 
19:15	74.0	74.0	74.0	31	41.4	0	1	0	0.00	29.952 
19:20	73.7	73.7	73.7	30	40.3	0	0	---	0.00	29.952 
19:25	73.5	73.5	73.5	31	41.0	0	0	---	0.00	29.952 
19:30	73.2	73.2	73.2	33	42.4	0	1	0	0.00	29.952 
19:35	72.7	72.7	72.7	34	42.7	0	1	0	0.00	29.952 
19:40	72.1	72.1	72.1	35	42.9	0	0	---	0.00	29.952 
19:45	71.6	71.6	71.6	35	42.5	0	0	---	0.00	29.938 
19:50	71.1	71.1	71.1	37	43.5	0	0	---	0.00	29.938 
19:55	70.6	70.6	70.6	39	44.4	0	0	---	0.00	29.938 
20:00	69.9	69.9	69.9	38	43.1	0	0	---	0.00	29.931 
20:05	69.4	69.4	69.4	39	43.4	0	0	---	0.00	29.931 
20:10	68.8	68.8	68.8	38	42.1	0	0	---	0.00	29.931 
20:15	68.3	68.3	68.3	39	42.4	0	0	---	0.00	29.928 
20:20	67.6	67.6	67.6	41	43.1	0	1	0	0.00	29.928 
20:25	67.3	67.3	67.3	41	42.8	0	2	22	0.00	29.928 
20:30	66.9	66.9	66.9	42	43.1	0	0	---	0.00	29.926 
20:35	66.6	66.6	66.6	44	44.0	0	1	22	0.00	29.926 
20:40	66.3	66.3	66.3	43	43.1	0	1	22	0.00	29.926 
20:45	66.3	66.3	66.3	43	43.1	0	1	22	0.00	29.916 
20:50	66.1	66.1	66.1	43	42.9	0	1	22	0.00	29.916 
20:55	65.8	65.8	65.8	44	43.3	0	0	---	0.00	29.916 
21:00	65.5	65.5	65.5	45	43.6	0	0	---	0.00	29.913 
21:05	65.0	65.0	65.0	44	42.6	0	0	---	0.00	29.913 
21:10	64.5	64.5	64.5	47	43.8	0	0	---	0.00	29.913 
21:15	64.0	64.0	64.0	47	43.4	0	0	---	0.00	29.906 
21:20	63.7	63.7	63.7	46	42.5	0	1	22	0.00	29.906 
21:25	63.5	63.5	63.5	46	42.3	0	0	---	0.00	29.906 
21:30	63.2	63.2	63.2	46	42.1	0	0	---	0.00	29.909 
21:35	63.1	63.1	63.1	48	43.1	0	1	22	0.00	29.909 
21:40	63.1	63.1	63.1	46	42.0	0	1	22	0.00	29.909 
21:45	63.7	63.7	63.7	45	42.0	1	2	22	0.00	29.909 
21:50	64.0	64.0	64.0	44	41.6	0	1	22	0.00	29.909 
21:55	64.2	64.2	64.2	45	42.4	0	0	---	0.00	29.909 
22:00	64.3	64.3	64.3	45	42.5	0	2	22	0.00	29.926 
22:05	64.5	64.5	64.5	47	43.8	1	3	22	0.00	29.926 
22:10	64.3	64.3	64.3	45	42.5	2	4	22	0.00	29.926 
22:15	64.7	64.7	64.7	44	42.3	3	5	90	0.00	29.894 
22:20	64.7	64.7	64.7	44	42.3	3	5	90	0.00	29.894 
22:25	64.5	64.5	64.5	45	42.7	3	6	90	0.00	29.894 
22:30	64.5	64.5	64.5	45	42.7	2	4	90	0.00	29.890 
22:35	64.3	64.3	64.3	46	43.1	1	3	90	0.00	29.890 
22:40	64.0	64.0	64.0	47	43.4	0	2	90	0.00	29.890 
22:45	63.7	63.7	63.7	47	43.1	0	0	---	0.00	29.894 
22:50	63.5	63.5	63.5	48	43.5	0	1	90	0.00	29.894 
22:55	63.2	63.2	63.2	48	43.2	0	1	90	0.00	29.894 
23:00	62.9	62.9	62.9	48	42.9	0	0	---	0.00	29.879 
23:05	62.6	62.6	62.6	49	43.2	0	1	90	0.00	29.879 
23:10	62.4	62.4	62.4	49	43.0	0	1	90	0.00	29.879 
23:15	62.3	62.3	62.3	50	43.4	0	2	90	0.00	29.877 
23:20	62.3	62.3	62.3	50	43.4	0	1	90	0.00	29.877 
23:25	62.1	62.1	62.1	50	43.2	0	1	90	0.00	29.877 
23:30	62.0	62.0	62.0	50	43.1	0	2	90	0.00	29.866 
23:35	62.0	62.0	62.0	50	43.1	0	2	90	0.00	29.866 
23:40	62.1	62.1	62.1	50	43.2	1	2	135	0.00	29.866 
23:45	62.3	62.3	62.3	48	42.4	1	2	112	0.00	29.857 
23:50	62.4	62.4	62.4	48	42.4	0	1	112	0.00	29.857 
23:55	62.4	62.4	62.4	49	43.0	0	2	112	0.00	29.857 

CoCoRaHS
IN-AL-39
A2 Web Hosting
Creative Commons License
GoDaddy
Look for:

loaded 2017-10-17 22:39:21 • last modified 2010-11-18 10:43:29
Privacy PolicyDisclaimer
• wx.awcolley.com is powered by PmWiki v.2002016 •
• all content (unless otherwise noted) © 2017 A W Colley